Fredericia, Denmark
Current Conditions -  °F | °C
As of 3:20 PM on Saturday 22 Nov 2014 (Local Time) from EKVD Reporting Station
Light Rain Light Rain  
Wind Chill: 34°   Ceiling: 1200
Heat Index: 41°   Visibility: 2.8mi
Dew Point: 37°   Wind: 12mph
Humidity: 87%   Direction: 140°SE
Pressure: 30.15"   Gusts: NA
Location:  55.57°N, 9.75°E
Report Text: EKVD 221420Z 14010KT 4500 -RA BKN012 BKN030 05/03 Q1021
Loading
Personal Weather Stations






























Interactive Weather Map New forecast layout! Learn more

10-Day Weather Forecast

Advertisements
Track Severe Weather on mobile